createdAt,value
2019-04-14T00:00:55.402Z,37.73
2019-04-14T00:05:58.307Z,38.23
2019-04-14T00:10:59.741Z,38.63
2019-04-14T00:16:03.149Z,35.30
2019-04-14T00:21:04.659Z,34.43
2019-04-14T00:26:26.958Z,34.63
2019-04-14T00:31:28.604Z,33.43
2019-04-14T00:36:34.763Z,34.63
2019-04-14T00:41:44.882Z,34.43
2019-04-14T00:46:41.554Z,34.13
2019-04-14T00:51:44.160Z,34.00
2019-04-14T00:56:47.450Z,33.63
2019-04-14T01:01:48.961Z,34.20
2019-04-14T01:06:51.402Z,34.17
2019-04-14T01:11:53.847Z,34.17
2019-04-14T01:16:56.296Z,34.93
2019-04-14T01:21:58.886Z,35.60
2019-04-14T01:27:01.705Z,36.60
2019-04-14T01:32:04.563Z,37.53
2019-04-14T01:37:07.192Z,38.63
2019-04-14T01:42:09.513Z,37.07
2019-04-14T01:47:11.646Z,35.47
2019-04-14T01:52:14.552Z,36.67
2019-04-14T01:57:34.940Z,36.07
2019-04-14T02:02:36.237Z,36.17
2019-04-14T02:07:38.682Z,36.07
2019-04-14T02:12:41.130Z,34.60
2019-04-14T02:17:43.854Z,35.90
2019-04-14T02:22:46.319Z,34.57
2019-04-14T02:27:49.348Z,35.93
2019-04-14T02:38:39.162Z,35.37
2019-04-14T02:43:37.692Z,36.67
2019-04-14T02:48:44.292Z,36.37
2019-04-14T02:58:37.811Z,36.10
2019-04-14T03:03:30.523Z,36.63
2019-04-14T03:08:47.691Z,38.50
2019-04-14T03:13:43.456Z,37.77
2019-04-14T03:24:07.026Z,39.30
2019-04-14T03:29:15.022Z,40.03
2019-04-14T03:39:15.606Z,42.43
2019-04-14T03:44:16.773Z,41.27
2019-04-14T03:49:24.567Z,42.67
2019-04-14T03:54:18.735Z,42.20
2019-04-14T03:59:00.394Z,42.47
2019-04-14T04:04:03.251Z,42.43
2019-04-14T04:09:06.275Z,43.80
2019-04-14T04:14:07.745Z,44.77
2019-04-14T04:19:13.618Z,44.43
2019-04-14T04:24:12.905Z,47.03
2019-04-14T04:29:15.786Z,45.13
2019-04-14T04:34:20.495Z,46.00
2019-04-14T04:39:23.595Z,48.50
2019-04-14T04:44:25.081Z,48.07
2019-04-14T04:49:29.295Z,47.63
2019-04-14T04:54:30.156Z,47.53
2019-04-14T04:59:32.447Z,47.10
2019-04-14T05:04:35.117Z,47.07
2019-04-14T05:09:38.510Z,46.13
2019-04-14T05:14:50.087Z,48.30
2019-04-14T05:19:51.913Z,47.20
2019-04-14T05:24:54.952Z,47.60
2019-04-14T05:29:56.281Z,50.93
2019-04-14T05:34:58.775Z,47.87
2019-04-14T05:40:01.617Z,50.30
2019-04-14T05:45:04.478Z,51.00
2019-04-14T05:50:07.238Z,49.30
2019-04-14T05:55:08.837Z,51.37
2019-04-14T06:00:11.048Z,51.00
2019-04-14T06:05:14.538Z,48.47
2019-04-14T06:10:15.966Z,48.70
2019-04-14T06:15:18.424Z,52.00
2019-04-14T06:20:20.894Z,52.20
2019-04-14T06:25:23.358Z,53.47
2019-04-14T06:30:31.794Z,51.93
2019-04-14T06:35:34.276Z,53.53
2019-04-14T06:40:36.743Z,51.17
2019-04-14T06:45:39.202Z,49.40
2019-04-14T06:50:41.683Z,50.77
2019-04-14T06:55:44.158Z,51.97
2019-04-14T07:00:46.634Z,48.43
2019-04-14T07:05:49.103Z,49.57
2019-04-14T07:10:51.571Z,49.10
2019-04-14T07:15:54.040Z,50.90
2019-04-14T07:20:56.510Z,50.03
2019-04-14T07:25:58.992Z,49.03
2019-04-14T07:31:13.753Z,47.43
2019-04-14T07:36:19.354Z,44.30
2019-04-14T07:41:33.929Z,44.40
2019-04-14T07:46:39.266Z,43.77
2019-04-14T07:51:41.791Z,42.10
2019-04-14T07:56:53.077Z,43.77
2019-04-14T08:01:55.582Z,43.10
2019-04-14T08:06:58.052Z,44.60
2019-04-14T08:12:00.527Z,43.67
2019-04-14T08:17:02.987Z,44.77
2019-04-14T08:22:05.459Z,43.17
2019-04-14T08:27:07.928Z,38.53
2019-04-14T08:32:10.406Z,39.80
2019-04-14T08:37:12.930Z,39.90
2019-04-14T08:42:24.378Z,38.33
2019-04-14T08:47:45.206Z,36.40
2019-04-14T08:52:50.627Z,34.83
2019-04-14T08:57:58.690Z,32.30
2019-04-14T09:03:16.444Z,29.67
2019-04-14T09:08:24.887Z,28.80
2019-04-14T09:13:27.379Z,28.07
2019-04-14T09:18:29.864Z,30.77
2019-04-14T09:23:32.330Z,28.87
2019-04-14T09:28:34.808Z,27.90
2019-04-14T09:33:37.291Z,26.33
2019-04-14T09:38:39.830Z,27.20
2019-04-14T09:43:42.311Z,28.37
2019-04-14T09:48:44.803Z,27.83
2019-04-14T09:53:47.275Z,29.00
2019-04-14T09:58:49.737Z,26.23
2019-04-14T10:03:52.202Z,25.60
2019-04-14T10:08:54.691Z,25.13
2019-04-14T10:13:57.154Z,24.43
2019-04-14T10:18:59.632Z,23.10
2019-04-14T10:24:02.099Z,23.90
2019-04-14T10:29:04.590Z,23.37
2019-04-14T10:34:09.764Z,25.13
2019-04-14T10:39:09.544Z,23.23
2019-04-14T10:44:12.058Z,22.00
2019-04-14T10:49:14.580Z,21.27
2019-04-14T10:54:17.074Z,21.33
2019-04-14T10:59:19.557Z,19.57
2019-04-14T11:04:22.036Z,18.20
2019-04-14T11:09:24.546Z,16.70
2019-04-14T11:14:27.042Z,17.63
2019-04-14T11:19:29.526Z,20.50
2019-04-14T11:24:32.008Z,21.57
2019-04-14T11:29:34.473Z,18.50
2019-04-14T11:34:39.717Z,17.70
2019-04-14T11:39:42.194Z,20.83
2019-04-14T11:44:44.679Z,20.03
2019-04-14T11:49:47.156Z,18.67
2019-04-14T11:54:49.662Z,20.17
2019-04-14T11:59:55.048Z,17.53
2019-04-14T12:05:03.466Z,18.60
2019-04-14T12:10:05.941Z,19.33
2019-04-14T12:15:08.447Z,18.40
2019-04-14T12:20:10.942Z,18.23
2019-04-14T12:25:13.468Z,18.20
2019-04-14T12:30:15.959Z,16.97
2019-04-14T12:35:18.447Z,17.00
2019-04-14T12:40:20.956Z,15.90
2019-04-14T12:45:29.198Z,15.80
2019-04-14T12:50:31.778Z,16.47
2019-04-14T12:55:34.257Z,16.00
2019-04-14T13:00:42.526Z,17.60
2019-04-14T13:05:45.020Z,15.90
2019-04-14T13:10:47.503Z,15.73
2019-04-14T13:15:49.978Z,15.57
2019-04-14T13:20:52.441Z,15.73
2019-04-14T13:25:54.923Z,15.07
2019-04-14T13:30:57.447Z,15.63
2019-04-14T13:35:59.930Z,15.87
2019-04-14T13:41:02.430Z,15.67
2019-04-14T13:46:04.915Z,14.30
2019-04-14T13:51:07.402Z,15.20
2019-04-14T13:56:09.870Z,13.80
2019-04-14T14:01:12.350Z,14.70
2019-04-14T14:06:14.830Z,15.20
2019-04-14T14:11:23.244Z,14.27
2019-04-14T14:16:28.623Z,14.53
2019-04-14T14:21:49.315Z,14.73
2019-04-14T14:26:51.842Z,14.37
2019-04-14T14:31:54.319Z,14.70
2019-04-14T14:36:56.779Z,13.73
2019-04-14T14:41:59.348Z,13.70
2019-04-14T14:47:16.648Z,14.20
2019-04-14T14:52:19.136Z,13.83
2019-04-14T14:57:21.616Z,13.43
2019-04-14T15:02:24.103Z,13.93
2019-04-14T15:07:26.593Z,15.17
2019-04-14T15:12:29.081Z,13.33
2019-04-14T15:17:31.549Z,13.67
2019-04-14T15:22:34.021Z,13.60
2019-04-14T15:27:36.501Z,14.10
2019-04-14T15:32:38.996Z,13.27
2019-04-14T15:37:41.450Z,13.37
2019-04-14T15:42:43.928Z,12.57
2019-04-14T15:47:46.411Z,13.13
2019-04-14T15:52:48.904Z,12.87
2019-04-14T15:57:57.388Z,13.10
2019-04-14T16:03:09.085Z,12.93
2019-04-14T16:08:14.349Z,12.40
2019-04-14T16:13:16.860Z,12.73
2019-04-14T16:18:37.499Z,12.90
2019-04-14T16:23:50.024Z,13.67
2019-04-14T16:28:42.469Z,14.03
2019-04-14T16:34:00.234Z,15.37
2019-04-14T16:39:02.720Z,15.73
2019-04-14T16:44:05.207Z,13.97
2019-04-14T16:49:07.719Z,14.07
2019-04-14T16:54:22.516Z,15.23
2019-04-14T16:59:24.998Z,15.90
2019-04-14T17:04:27.501Z,15.17
2019-04-14T17:09:29.982Z,17.10
2019-04-14T17:14:41.727Z,17.70
2019-04-14T17:20:02.207Z,17.43
2019-04-14T17:25:13.800Z,16.80
2019-04-14T17:30:25.293Z,18.43
2019-04-14T17:35:30.828Z,17.57
2019-04-14T17:40:48.497Z,17.57
2019-04-14T17:45:56.972Z,16.57
2019-04-14T17:51:08.187Z,17.67
2019-04-14T17:56:10.687Z,17.07
2019-04-14T18:01:19.390Z,16.07
2019-04-14T18:06:21.941Z,16.73
2019-04-14T18:11:33.746Z,13.37
2019-04-14T18:16:48.521Z,12.30
2019-04-14T18:21:51.022Z,11.77
2019-04-14T18:26:53.504Z,12.03
2019-04-14T18:31:55.974Z,13.53
2019-04-14T18:36:58.474Z,11.57
2019-04-14T18:42:01.013Z,13.30
2019-04-14T18:47:21.846Z,14.20
2019-04-14T18:52:36.623Z,12.77
2019-04-14T18:57:51.374Z,13.10
2019-04-14T19:02:54.055Z,12.57
2019-04-14T19:07:56.792Z,12.77
2019-04-14T19:12:59.434Z,13.33
2019-04-14T19:18:11.174Z,13.43
2019-04-14T19:23:13.752Z,12.63
2019-04-14T19:28:16.249Z,13.10
2019-04-14T19:33:18.738Z,14.23
2019-04-14T19:38:21.217Z,13.57
2019-04-14T19:43:24.360Z,14.10
2019-04-14T19:48:26.225Z,13.30
2019-04-14T19:53:28.702Z,13.23
2019-04-14T19:58:31.177Z,12.70
2019-04-14T20:03:33.682Z,12.73
2019-04-14T20:08:36.140Z,14.00
2019-04-14T20:13:41.515Z,13.03
2019-04-14T20:18:56.315Z,12.90
2019-04-14T20:23:58.791Z,12.53
2019-04-14T20:29:03.798Z,11.27
2019-04-14T20:34:06.297Z,11.03
2019-04-14T20:39:08.764Z,9.47
2019-04-14T20:44:11.248Z,10.97
2019-04-14T20:49:13.723Z,9.30
2019-04-14T20:54:16.214Z,9.47
2019-04-14T20:59:18.676Z,8.30
2019-04-14T21:04:24.216Z,8.87
2019-04-14T21:09:29.670Z,13.10
2019-04-14T21:14:50.319Z,13.60
2019-04-14T21:19:58.905Z,12.70
2019-04-14T21:25:16.558Z,11.90
2019-04-14T21:30:21.832Z,12.33
2019-04-14T21:35:24.365Z,12.00
2019-04-14T21:40:26.834Z,12.33
2019-04-14T21:45:29.306Z,12.70
2019-04-14T21:50:31.758Z,12.80
2019-04-14T21:55:34.245Z,12.90
2019-04-14T22:01:04.040Z,12.57
2019-04-14T22:06:15.524Z,13.40
2019-04-14T22:11:17.936Z,13.67
2019-04-14T22:16:20.408Z,13.00
2019-04-14T22:21:22.868Z,13.73
2019-04-14T22:26:26.509Z,14.03
2019-04-14T22:31:27.812Z,14.30
2019-04-14T22:36:30.299Z,12.63
2019-04-14T22:41:32.823Z,13.50
2019-04-14T22:46:35.376Z,12.37
2019-04-14T22:51:37.896Z,13.53
2019-04-14T22:56:40.376Z,13.17
2019-04-14T23:01:42.843Z,13.27
2019-04-14T23:07:03.656Z,14.00
2019-04-14T23:12:06.184Z,11.87
2019-04-14T23:17:26.957Z,13.17
2019-04-14T23:22:29.434Z,15.13
2019-04-14T23:27:31.892Z,14.47
2019-04-14T23:32:34.459Z,11.03
2019-04-14T23:37:36.929Z,11.53
2019-04-14T23:42:39.413Z,11.30
2019-04-14T23:47:41.881Z,12.40
2019-04-14T23:52:44.345Z,12.03
2019-04-14T23:57:46.915Z,12.40
